TAF Flughafenprognosen

Nürnberg TAF, ausgegeben Di 02.03. 12:00

TAF EDDN 021100Z 0212/0312 13005KT CAVOK
GültigkeitVonBisWind in Beaufort
(Knoten)
Wolken
(Meter über Grund)
Sichtweite
(Meter)
Wettererscheinung
Grundvorhersage Di 02.03. 13:00 Mi 03.03. 13:00 SO 2 (5)      

 

Hof TAF, ausgegeben Di 02.03. 15:00

TAF EDQM 021400Z 0215/0224 16006KT CAVOK BECMG 0216/0218 VRB02KT
GültigkeitVonBisWind in Beaufort
(Knoten)
Wolken
(Meter über Grund)
Sichtweite
(Meter)
Wettererscheinung
Grundvorhersage Di 02.03. 16:00 Mi 03.03. 01:00 SSO 2 (6) Nicht signifikant >= 10000  
Übergang zu Di 02.03. 17:00 Di 02.03. 19:00 Uml 1 (2)      

 

Erfurt-Bindersleben TAF, ausgegeben Di 02.03. 12:00

TAF EDDE 021100Z 0212/0312 02005KT 0500 FG BKN001 BECMG 0212/0215 6000 NSC BECMG 0216/0218 20004KT TEMPO 0302/0308 0600 FZFG BKN001
GültigkeitVonBisWind in Beaufort
(Knoten)
Wolken
(Meter über Grund)
Sichtweite
(Meter)
Wettererscheinung
Grundvorhersage Di 02.03. 13:00 Mi 03.03. 13:00 NNO 2 (5) Stark bewölkt (30) 500 Nebel
Übergang zu Di 02.03. 13:00 Di 02.03. 16:00   Nicht signifikant 6000  
Übergang zu Di 02.03. 17:00 Di 02.03. 19:00 SSW 2 (4)      
Vorübergehend Mi 03.03. 03:00 Mi 03.03. 09:00   Stark bewölkt (30) 600 Nebel

 

Augsburg TAF, ausgegeben Di 02.03. 15:00

TAF EDMA 021400Z 0215/0224 VRB03KT CAVOK
GültigkeitVonBisWind in Beaufort
(Knoten)
Wolken
(Meter über Grund)
Sichtweite
(Meter)
Wettererscheinung
Grundvorhersage Di 02.03. 16:00 Mi 03.03. 01:00 Uml 2 (3)      

 

Frankfurt TAF, ausgegeben Di 02.03. 12:00

TAF EDDF 021100Z 0212/0318 08005KT CAVOK BECMG 0214/0217 VRB03KT BECMG 0308/0310 22006KT
GültigkeitVonBisWind in Beaufort
(Knoten)
Wolken
(Meter über Grund)
Sichtweite
(Meter)
Wettererscheinung
Grundvorhersage Di 02.03. 13:00 Mi 03.03. 19:00 O 2 (5) Nicht signifikant >= 10000  
Übergang zu Di 02.03. 15:00 Di 02.03. 18:00 Uml 2 (3)      
Übergang zu Mi 03.03. 09:00 Mi 03.03. 11:00 SW 2 (6)      

 

Stuttgart TAF, ausgegeben Di 02.03. 12:00

TAF EDDS 021100Z 0212/0312 VRB03KT CAVOK
GültigkeitVonBisWind in Beaufort
(Knoten)
Wolken
(Meter über Grund)
Sichtweite
(Meter)
Wettererscheinung
Grundvorhersage Di 02.03. 13:00 Mi 03.03. 13:00 Uml 2 (3)      

 

München TAF, ausgegeben Di 02.03. 12:00

TAF EDDM 021100Z 0212/0318 VRB03KT CAVOK PROB30 TEMPO 0303/0308 2000 BCFG
GültigkeitVonBisWind in Beaufort
(Knoten)
Wolken
(Meter über Grund)
Sichtweite
(Meter)
Wettererscheinung
Grundvorhersage Di 02.03. 13:00 Mi 03.03. 19:00 Uml 2 (3) Nicht signifikant >= 10000  
Vorübergehend
(Wahrscheinlichkeit 30 %)
Mi 03.03. 04:00 Mi 03.03. 09:00     2000 Nebel-Bänke